Main page
METAR-TAF:

METAR-TAF

Airports :

Gloucester, England

Gloucestershire Airport

latitude: 51-54N, longitude: 002-10W, elevation: 29 m

Current weather observation

The report was made 6 hours and 48 minutes ago, at 17:20 UTC
Wind 14 kt from the Southwest
Temperature 10°C
Humidity 87%
Pressure 999 hPa
Visibility: 8000 m
Few clouds at a height of 800 ft
Broken clouds at a height of 2000 ft
light rain

METAR: EGBJ 261720Z 22014KT 8000 -RA FEW008 BKN020 10/08 Q0999

Time: 00:08 (00:08 UTC)

Forecast

The report was made 10 hours and 4 minutes ago, at 14:04 UTC
Forecast valid from 26 at 15 UTC to 26 at 19 UTC
Wind 17 kt from the South/Southwest with gusts up to 27 kt
Visibility 10 km or more
Broken clouds at a height of 2500 ft
Probability 40% :
Temporary
from 26 at 15 UTC to 26 at 19 UTC
Visibility: 8000 m
Broken clouds at a height of 1200 ft
rain

TAF: EGBJ 261404Z 2615/2619 20017G27KT 9999 BKN025 PROB40 TEMPO 2615/2619 8000 RA BKN012

Weather observations and forecasts of more than 4000 airports (METAR and TAF reports).

The available stations are represented by yellow and red dots on the map.

Hover mouse over dot to see the name of the station.

Then click to see weather observations and forecasts.

To change the map : click on the green buttons with a black cross to zoom in, on the green button with a dash to zoom out, or on the green arrows for adjacent maps.


METAR-TAF: